Time;durP1;ratioP1;P1;durP2;ratioP2;P2;SDS_P1;SDS_P2;PMS_P1;PMS_P2;Temp;Humidity;BMP_temperature;BMP_pressure;BME280_temperature;BME280_humidity;BME280_pressure;Samples;Min_cycle;Max_cycle;Signal;HPM_P1;HPM_P2
2022/01/02 00:01:20;;;;;;;6.15;2.65;;;-6.60;99.90;;;;;;5053988;28;20447;-84
2022/01/02 00:03:52;;;;;;;6.65;2.60;;;-6.70;99.90;;;;;;5070489;28;20830;-85
2022/01/02 00:06:24;;;;;;;6.70;2.95;;;-6.60;99.90;;;;;;5070369;28;20389;-84
2022/01/02 00:09:15;;;;;;;7.13;2.60;;;-6.70;99.90;;;;;;5053873;28;20447;-85
2022/01/02 00:11:43;;;;;;;6.10;2.70;;;-6.70;99.90;;;;;;5070632;28;20394;-84
2022/01/02 00:14:15;;;;;;;6.75;2.90;;;-6.80;99.90;;;;;;5070332;28;20394;-84
2022/01/02 00:16:42;;;;;;;7.93;2.72;;;-6.80;99.90;;;;;;5071566;28;20386;-84
2022/01/02 00:19:28;;;;;;;4.93;2.38;;;-6.80;99.90;;;;;;5053836;28;20443;-85
2022/01/02 00:22:03;;;;;;;6.78;2.92;;;-6.90;99.90;;;;;;5070066;28;20406;-85
2022/01/02 00:24:32;;;;;;;6.68;3.00;;;-6.90;99.90;;;;;;5070738;28;20740;-85
2022/01/02 00:27:00;;;;;;;7.77;2.87;;;-6.90;99.90;;;;;;5071440;28;20406;-84
2022/01/02 00:29:27;;;;;;;7.28;2.90;;;-6.80;99.90;;;;;;5071424;28;20477;-84
2022/01/02 00:31:55;;;;;;;5.75;2.42;;;-6.90;99.90;;;;;;5053624;28;20447;-84
2022/01/02 00:34:23;;;;;;;7.10;2.90;;;-6.80;99.90;;;;;;5070054;28;20386;-84
2022/01/02 00:36:51;;;;;;;7.45;3.17;;;-6.80;99.90;;;;;;5071366;28;20443;-84
2022/01/02 00:39:19;;;;;;;8.73;3.13;;;-6.80;99.90;;;;;;5053407;28;20382;-84
2022/01/02 00:41:55;;;;;;;5.20;2.47;;;-6.90;99.90;;;;;;5070030;28;20892;-85
2022/01/02 00:44:43;;;;;;;5.43;2.80;;;-6.90;99.90;;;;;;5071275;28;20752;-85
2022/01/02 00:47:38;;;;;;;6.53;3.10;;;-7.00;99.90;;;;;;5070629;28;20428;-85
2022/01/02 00:50:10;;;;;;;6.35;3.00;;;-6.90;99.90;;;;;;5053409;28;20382;-84
2022/01/02 00:52:41;;;;;;;6.68;3.00;;;-6.90;99.90;;;;;;5070082;28;20429;-84
2022/01/02 00:55:17;;;;;;;6.45;2.55;;;-6.90;99.90;;;;;;5069918;28;20567;-84
2022/01/02 00:57:57;;;;;;;5.32;2.60;;;-7.10;99.90;;;;;;5070111;28;20787;-84
2022/01/02 01:00:28;;;;;;;7.20;2.92;;;-7.10;99.90;;;;;;5069391;28;20394;-84
2022/01/02 01:02:59;;;;;;;6.72;2.83;;;-7.20;99.90;;;;;;5054135;28;20473;-84
2022/01/02 01:05:33;;;;;;;5.85;2.70;;;-7.30;99.90;;;;;;5049928;28;20396;-84
2022/01/02 01:08:05;;;;;;;7.32;3.17;;;-7.30;99.90;;;;;;5049916;28;20805;-84
2022/01/02 01:10:39;;;;;;;6.35;2.80;;;-7.30;99.90;;;;;;5049894;28;20392;-85
2022/01/02 01:13:08;;;;;;;6.65;3.00;;;-7.40;99.90;;;;;;5049901;28;20388;-84
2022/01/02 01:15:38;;;;;;;5.82;2.85;;;-7.30;99.90;;;;;;5049576;28;20978;-84
2022/01/02 01:18:06;;;;;;;6.65;2.63;;;-7.20;99.90;;;;;;5049715;28;20422;-84
2022/01/02 01:20:38;;;;;;;5.85;2.83;;;-7.20;99.90;;;;;;5049602;28;20967;-84
2022/01/02 01:23:07;;;;;;;5.15;2.42;;;-7.30;99.90;;;;;;5033138;28;20478;-84
2022/01/02 01:25:38;;;;;;;4.93;2.60;;;-7.30;99.90;;;;;;5049791;28;20392;-84
2022/01/02 01:28:06;;;;;;;5.18;2.72;;;-7.40;99.90;;;;;;5033209;28;20862;-85
2022/01/02 01:30:33;;;;;;;6.18;2.58;;;-7.60;99.90;;;;;;5050904;28;20474;-84
2022/01/02 01:33:01;;;;;;;6.05;2.75;;;-7.60;99.90;;;;;;5050782;28;20391;-85
2022/01/02 01:35:29;;;;;;;8.18;3.00;;;-7.70;99.90;;;;;;5056991;28;20432;-84
2022/01/02 01:37:56;;;;;;;5.60;2.90;;;-7.60;99.90;;;;;;5072432;28;20397;-84
2022/01/02 01:40:25;;;;;;;7.10;2.97;;;-7.60;99.90;;;;;;5069659;28;20462;-83
2022/01/02 01:43:01;;;;;;;6.20;2.65;;;-7.60;99.90;;;;;;5071725;28;20418;-83
2022/01/02 01:45:33;;;;;;;5.57;2.50;;;-7.60;99.90;;;;;;5057249;28;20390;-83
2022/01/02 01:48:06;;;;;;;5.22;2.70;;;-7.70;99.90;;;;;;5055437;28;20447;-84
2022/01/02 01:50:41;;;;;;;5.20;2.80;;;-7.80;99.90;;;;;;5073004;28;20402;-84
2022/01/02 01:53:18;;;;;;;5.85;2.88;;;-7.80;99.90;;;;;;5056971;28;20416;-84
2022/01/02 01:55:46;;;;;;;6.78;3.17;;;-7.80;99.90;;;;;;5052654;28;20407;-84
2022/01/02 01:58:16;;;;;;;7.30;3.40;;;-7.90;99.90;;;;;;5052746;28;20391;-84
2022/01/02 02:00:45;;;;;;;9.35;3.70;;;-7.80;99.90;;;;;;5053575;28;20419;-83
2022/01/02 02:03:31;;;;;;;7.43;3.63;;;-7.80;99.90;;;;;;5058685;28;20891;-84
2022/01/02 02:06:00;;;;;;;7.95;3.45;;;-7.90;99.90;;;;;;5072702;28;20402;-83
2022/01/02 02:08:27;;;;;;;7.70;3.65;;;-7.90;99.90;;;;;;5072608;28;20741;-85
2022/01/02 02:10:58;;;;;;;7.65;3.67;;;-8.00;99.90;;;;;;5072719;28;20959;-84
2022/01/02 02:13:28;;;;;;;8.40;3.45;;;-8.00;99.90;;;;;;5056547;28;20430;-84
2022/01/02 02:16:02;;;;;;;7.07;3.20;;;-8.00;99.90;;;;;;5072368;28;20419;-84
2022/01/02 02:18:31;;;;;;;5.78;3.28;;;-8.00;99.90;;;;;;5072550;28;20386;-84
2022/01/02 02:20:59;;;;;;;7.47;3.60;;;-7.90;99.90;;;;;;5072313;28;20398;-84
2022/01/02 02:23:30;;;;;;;6.50;3.40;;;-8.10;99.90;;;;;;5072320;28;20752;-84
2022/01/02 02:25:58;;;;;;;8.18;3.30;;;-8.10;99.90;;;;;;5071685;28;20760;-85
2022/01/02 02:28:27;;;;;;;6.93;2.83;;;-8.00;99.90;;;;;;5035866;28;20450;-85
2022/01/02 02:30:58;;;;;;;5.40;2.78;;;-8.10;99.90;;;;;;5052314;28;20757;-84
2022/01/02 02:33:26;;;;;;;7.60;3.28;;;-8.20;99.90;;;;;;5058259;28;20439;-85
2022/01/02 02:35:54;;;;;;;8.38;3.17;;;-8.20;99.90;;;;;;5071943;28;20489;-85
2022/01/02 02:38:23;;;;;;;6.90;3.20;;;-8.10;99.90;;;;;;5055650;28;20477;-85
2022/01/02 02:40:56;;;;;;;7.13;3.30;;;-8.10;99.90;;;;;;5072101;28;20477;-84
2022/01/02 02:43:32;;;;;;;7.10;3.20;;;-8.20;99.90;;;;;;5072064;28;20479;-85
2022/01/02 02:49:08;;;;;;;7.82;3.08;;;-8.10;99.90;;;;;;5055348;28;20497;-84
2022/01/02 02:51:52;;;;;;;6.90;3.08;;;-8.00;99.90;;;;;;5072209;28;20402;-84
2022/01/02 02:54:28;;;;;;;7.15;3.17;;;-8.20;99.90;;;;;;5071790;28;20463;-84
2022/01/02 02:56:58;;;;;;;8.88;3.45;;;-8.20;99.90;;;;;;5071642;28;20398;-84
2022/01/02 02:59:35;;;;;;;7.32;3.17;;;-8.10;99.90;;;;;;5055655;28;20451;-84
2022/01/02 03:02:05;;;;;;;8.02;3.10;;;-8.10;99.90;;;;;;5071721;28;20424;-84
2022/01/02 03:04:40;;;;;;;6.75;3.20;;;-8.10;99.90;;;;;;5056011;28;20402;-84
2022/01/02 03:07:08;;;;;;;7.28;3.40;;;-8.10;99.90;;;;;;5055118;28;20395;-85
2022/01/02 03:09:41;;;;;;;7.53;2.90;;;-8.10;99.90;;;;;;5071439;28;20402;-84
2022/01/02 03:12:11;;;;;;;6.57;3.05;;;-8.10;99.90;;;;;;5071424;28;20403;-84
2022/01/02 03:14:43;;;;;;;8.15;3.05;;;-8.20;99.90;;;;;;5071497;28;20547;-84
2022/01/02 03:17:11;;;;;;;9.27;3.30;;;-8.20;99.90;;;;;;5071207;28;20409;-84
2022/01/02 03:19:39;;;;;;;7.57;3.07;;;-8.20;99.90;;;;;;5054740;28;20394;-84
2022/01/02 03:22:08;;;;;;;7.10;3.00;;;-8.10;99.90;;;;;;5054359;28;20402;-84
2022/01/02 03:24:35;;;;;;;6.43;2.77;;;-8.10;99.90;;;;;;5072433;28;20382;-85
2022/01/02 03:27:03;;;;;;;9.32;3.45;;;-8.10;99.90;;;;;;5062849;28;20392;-84
2022/01/02 03:29:31;;;;;;;6.85;3.05;;;-8.10;99.90;;;;;;5051035;28;20813;-84
2022/01/02 03:32:00;;;;;;;8.33;3.27;;;-8.10;99.90;;;;;;5051205;28;20400;-84
2022/01/02 03:34:27;;;;;;;6.72;3.30;;;-8.00;99.90;;;;;;5034670;28;20396;-85
2022/01/02 03:36:55;;;;;;;8.27;3.38;;;-8.00;99.90;;;;;;5051028;28;20487;-85
2022/01/02 03:39:23;;;;;;;7.57;2.88;;;-8.20;99.90;;;;;;5034618;28;20388;-84
2022/01/02 03:41:52;;;;;;;7.70;3.20;;;-8.10;99.90;;;;;;5052270;28;20418;-85
2022/01/02 03:44:20;;;;;;;6.67;2.97;;;-8.10;99.90;;;;;;5034530;28;20384;-84
2022/01/02 03:46:48;;;;;;;6.72;2.95;;;-8.10;99.90;;;;;;5034482;28;20435;-84
2022/01/02 03:49:16;;;;;;;8.85;3.33;;;-8.00;99.90;;;;;;5050784;28;20435;-84
2022/01/02 03:51:43;;;;;;;7.28;3.03;;;-8.00;99.90;;;;;;5050834;28;20882;-83
2022/01/02 03:54:15;;;;;;;6.57;2.70;;;-8.10;99.90;;;;;;5052151;28;20448;-85
2022/01/02 03:56:44;;;;;;;7.13;3.00;;;-8.00;99.90;;;;;;5050741;28;20928;-84
2022/01/02 03:59:12;;;;;;;6.32;2.67;;;-8.10;99.90;;;;;;5033524;28;20470;-84
2022/01/02 04:01:40;;;;;;;6.22;3.13;;;-8.10;99.90;;;;;;5063979;28;20803;-84
2022/01/02 04:04:08;;;;;;;6.25;2.78;;;-8.00;99.90;;;;;;5070615;28;20512;-84
2022/01/02 04:06:35;;;;;;;6.70;3.10;;;-8.00;99.90;;;;;;5053901;28;20392;-83
2022/01/02 04:09:03;;;;;;;6.30;2.60;;;-8.00;99.90;;;;;;5070539;28;20410;-84
2022/01/02 04:11:31;;;;;;;5.95;3.08;;;-8.00;99.90;;;;;;5053941;28;20888;-83
2022/01/02 04:13:59;;;;;;;5.22;2.33;;;-8.00;99.90;;;;;;5053877;28;20390;-84
2022/01/02 04:16:26;;;;;;;7.70;3.10;;;-8.00;99.90;;;;;;5053862;28;20406;-84
2022/01/02 04:18:54;;;;;;;7.00;2.80;;;-8.00;99.90;;;;;;5053771;28;20425;-84
2022/01/02 04:21:22;;;;;;;6.45;3.20;;;-8.00;99.90;;;;;;5070292;28;20477;-84
2022/01/02 04:23:50;;;;;;;6.10;2.63;;;-8.00;99.90;;;;;;5070306;28;20962;-84
2022/01/02 04:26:18;;;;;;;6.93;3.10;;;-8.00;99.90;;;;;;5070215;28;20409;-84
2022/01/02 04:28:46;;;;;;;6.10;2.50;;;-8.00;99.90;;;;;;5053722;28;20409;-84
2022/01/02 04:31:15;;;;;;;6.93;3.08;;;-7.90;99.90;;;;;;5040626;28;20450;-84
2022/01/02 04:33:43;;;;;;;5.70;2.50;;;-7.90;99.90;;;;;;5033775;28;20395;-83
2022/01/02 04:36:11;;;;;;;6.50;2.57;;;-8.00;99.90;;;;;;5050049;28;20399;-84
2022/01/02 04:38:40;;;;;;;5.30;2.63;;;-8.00;99.90;;;;;;5051324;28;20387;-83
2022/01/02 04:41:08;;;;;;;8.13;3.40;;;-8.00;99.90;;;;;;5033661;28;20403;-84
2022/01/02 04:43:36;;;;;;;6.05;2.90;;;-8.00;99.90;;;;;;5050025;28;20399;-84
2022/01/02 04:46:05;;;;;;;5.80;2.67;;;-7.90;99.90;;;;;;5053747;28;20927;-84
2022/01/02 04:48:33;;;;;;;7.83;3.20;;;-7.90;99.90;;;;;;5053392;28;20799;-83
2022/01/02 04:51:01;;;;;;;5.63;2.90;;;-7.80;99.90;;;;;;5053549;28;20398;-84
2022/01/02 04:53:30;;;;;;;6.85;3.28;;;-7.80;99.90;;;;;;5070087;28;20392;-84
2022/01/02 04:55:58;;;;;;;6.53;2.70;;;-7.90;99.90;;;;;;5069825;28;20406;-84
2022/01/02 04:58:27;;;;;;;6.05;3.10;;;-7.80;99.90;;;;;;5053479;28;20390;-84
2022/01/02 05:00:54;;;;;;;6.10;2.95;;;-7.90;99.90;;;;;;5071231;28;20808;-84
2022/01/02 05:03:22;;;;;;;7.43;3.50;;;-7.90;99.90;;;;;;5071217;28;20477;-84
2022/01/02 05:05:51;;;;;;;10.27;5.97;;;-7.80;99.90;;;;;;5053394;28;20394;-84
2022/01/02 05:08:19;;;;;;;11.93;6.67;;;-7.80;99.90;;;;;;5053281;28;20409;-84
2022/01/02 05:10:47;;;;;;;11.32;6.57;;;-7.80;99.90;;;;;;5056509;28;20910;-84
2022/01/02 05:13:15;;;;;;;14.32;6.70;;;-7.80;99.90;;;;;;5057262;28;20401;-84
2022/01/02 05:15:43;;;;;;;14.27;6.88;;;-7.70;99.90;;;;;;5070276;28;20405;-84
2022/01/02 05:18:10;;;;;;;12.55;7.18;;;-7.70;99.90;;;;;;5041861;28;20383;-85
2022/01/02 05:20:39;;;;;;;9.77;5.13;;;-7.70;99.90;;;;;;5053553;28;20410;-84
2022/01/02 05:23:07;;;;;;;8.63;4.13;;;-7.80;99.90;;;;;;5069759;28;20402;-85
2022/01/02 05:25:35;;;;;;;10.65;5.43;;;-7.90;99.90;;;;;;5053666;28;20827;-85
2022/01/02 05:28:02;;;;;;;12.47;6.00;;;-7.80;99.90;;;;;;5073359;28;20382;-84
2022/01/02 05:30:31;;;;;;;12.70;5.80;;;-7.80;99.90;;;;;;5056838;28;20416;-84
2022/01/02 05:32:58;;;;;;;13.95;6.22;;;-7.90;99.90;;;;;;5057175;28;20390;-85
2022/01/02 05:35:26;;;;;;;11.45;5.10;;;-7.80;99.90;;;;;;5073380;28;20391;-84
2022/01/02 05:37:54;;;;;;;14.15;6.30;;;-7.70;99.90;;;;;;5069513;28;20420;-84
2022/01/02 05:40:22;;;;;;;15.73;7.43;;;-7.70;99.90;;;;;;5052843;28;20960;-84
2022/01/02 05:42:51;;;;;;;15.80;7.45;;;-7.70;99.90;;;;;;5056648;28;20443;-84
2022/01/02 05:45:18;;;;;;;17.85;9.75;;;-7.70;99.90;;;;;;5073107;28;20444;-85
2022/01/02 05:47:46;;;;;;;19.33;9.45;;;-7.60;99.90;;;;;;5056642;28;20389;-84
2022/01/02 05:50:14;;;;;;;16.67;8.50;;;-7.60;99.90;;;;;;5072939;28;20400;-84
2022/01/02 05:52:42;;;;;;;14.13;6.13;;;-7.50;99.90;;;;;;5073053;28;20741;-84
2022/01/02 05:55:10;;;;;;;16.83;7.80;;;-7.70;99.90;;;;;;5056328;28;20949;-84
2022/01/02 05:57:38;;;;;;;15.98;7.28;;;-7.70;99.90;;;;;;5049217;28;20437;-84
2022/01/02 06:00:08;;;;;;;18.20;8.70;;;-7.60;99.90;;;;;;5056480;28;20757;-84
2022/01/02 06:02:46;;;;;;;19.75;8.68;;;-7.60;99.90;;;;;;5057765;28;20866;-84
2022/01/02 06:05:14;;;;;;;21.23;9.50;;;-7.60;99.90;;;;;;5072808;28;20453;-84
2022/01/02 06:07:42;;;;;;;20.92;9.27;;;-7.50;99.90;;;;;;5074096;28;20394;-85
2022/01/02 06:10:10;;;;;;;23.23;10.00;;;-7.60;99.90;;;;;;5072762;28;20397;-84
2022/01/02 06:12:39;;;;;;;20.45;9.13;;;-7.60;99.90;;;;;;5056212;28;20397;-85
2022/01/02 06:15:07;;;;;;;23.43;10.80;;;-7.60;99.90;;;;;;5072124;28;20391;-84
2022/01/02 06:17:35;;;;;;;26.65;12.00;;;-7.60;99.90;;;;;;5072391;28;20421;-85
2022/01/02 06:20:03;;;;;;;27.55;12.82;;;-7.60;99.90;;;;;;5072460;28;20754;-84
2022/01/02 06:22:31;;;;;;;26.40;11.95;;;-7.60;99.90;;;;;;5038942;28;20396;-84
2022/01/02 06:24:58;;;;;;;27.30;12.15;;;-7.50;99.90;;;;;;5053752;28;20388;-85
2022/01/02 06:27:26;;;;;;;24.67;11.73;;;-7.50;99.90;;;;;;5052329;28;20415;-85
2022/01/02 06:29:54;;;;;;;26.73;11.80;;;-7.50;99.90;;;;;;5057404;28;20405;-84
2022/01/02 06:32:22;;;;;;;25.75;12.00;;;-7.50;99.90;;;;;;5055774;28;20449;-84
2022/01/02 06:34:49;;;;;;;24.83;11.85;;;-7.50;99.90;;;;;;5055908;28;20390;-84
2022/01/02 06:37:17;;;;;;;25.08;11.90;;;-7.50;99.90;;;;;;5072116;28;20410;-84
2022/01/02 06:39:45;;;;;;;25.05;11.35;;;-7.40;99.90;;;;;;5072043;28;20393;-84
2022/01/02 06:42:13;;;;;;;27.48;12.30;;;-7.50;99.90;;;;;;5072157;28;20911;-85
2022/01/02 06:44:41;;;;;;;26.77;12.07;;;-7.50;99.90;;;;;;5055534;28;20471;-84
2022/01/02 06:47:08;;;;;;;26.33;12.00;;;-7.50;99.90;;;;;;5073262;28;20398;-85
2022/01/02 06:49:37;;;;;;;27.07;11.57;;;-7.40;99.90;;;;;;5072009;28;20398;-85
2022/01/02 06:52:05;;;;;;;27.30;11.83;;;-7.40;99.90;;;;;;5071986;28;20478;-85
2022/01/02 06:54:33;;;;;;;26.55;11.95;;;-7.40;99.90;;;;;;5055426;28;20390;-85
2022/01/02 06:57:01;;;;;;;24.02;11.07;;;-7.40;99.90;;;;;;5055229;28;20571;-84
2022/01/02 06:59:31;;;;;;;22.40;9.73;;;-7.40;99.90;;;;;;5055305;28;20455;-84
2022/01/02 07:02:00;;;;;;;23.77;10.05;;;-7.50;99.90;;;;;;5069395;28;20412;-85
2022/01/02 07:04:28;;;;;;;19.85;8.95;;;-7.50;99.90;;;;;;5047835;28;20900;-84
2022/01/02 07:06:56;;;;;;;20.52;9.65;;;-7.50;99.90;;;;;;5049713;28;20403;-83
2022/01/02 07:09:24;;;;;;;19.17;8.95;;;-7.60;99.90;;;;;;5044273;28;20408;-84
2022/01/02 07:11:52;;;;;;;21.17;10.02;;;-7.50;99.90;;;;;;5052810;28;20458;-84
2022/01/02 07:14:20;;;;;;;19.13;9.47;;;-7.40;99.90;;;;;;5067563;28;20456;-84
2022/01/02 07:16:48;;;;;;;20.92;9.68;;;-7.50;99.90;;;;;;5051777;28;20400;-84
2022/01/02 07:19:16;;;;;;;18.50;8.70;;;-7.40;99.90;;;;;;5051631;28;20401;-84
2022/01/02 07:21:43;;;;;;;17.67;9.00;;;-7.30;99.90;;;;;;5034638;28;20479;-84
2022/01/02 07:24:11;;;;;;;19.95;8.57;;;-7.40;99.90;;;;;;5034849;28;20384;-84
2022/01/02 07:26:39;;;;;;;18.02;8.85;;;-7.30;99.90;;;;;;5040791;28;20477;-85
2022/01/02 07:29:06;;;;;;;17.60;8.07;;;-7.30;99.90;;;;;;5070647;28;20900;-85
2022/01/02 07:31:34;;;;;;;17.23;8.25;;;-7.30;99.90;;;;;;5071131;28;20906;-83
2022/01/02 07:34:03;;;;;;;17.77;9.23;;;-7.20;99.90;;;;;;5047795;28;20390;-84
2022/01/02 07:36:31;;;;;;;17.90;8.20;;;-7.20;99.90;;;;;;5045149;28;20902;-84
2022/01/02 07:39:04;;;;;;;16.17;7.63;;;-7.20;99.90;;;;;;5052224;28;20394;-84
2022/01/02 07:41:33;;;;;;;16.50;7.45;;;-7.20;99.90;;;;;;5072158;28;20374;-85
2022/01/02 07:44:03;;;;;;;18.20;7.67;;;-7.20;99.90;;;;;;5068118;28;20394;-85
2022/01/02 07:46:31;;;;;;;18.17;8.10;;;-7.20;99.90;;;;;;5060464;28;20759;-85
2022/01/02 07:48:59;;;;;;;18.40;8.40;;;-7.20;99.90;;;;;;5070659;28;20390;-84
2022/01/02 07:51:27;;;;;;;16.45;7.65;;;-7.10;99.90;;;;;;5054261;28;20902;-85
2022/01/02 07:53:55;;;;;;;18.05;8.02;;;-7.10;99.90;;;;;;5069004;28;20390;-85
2022/01/02 07:56:24;;;;;;;17.43;8.37;;;-7.30;99.90;;;;;;5053813;28;20398;-84
2022/01/02 07:58:52;;;;;;;18.65;8.30;;;-7.20;99.90;;;;;;5054059;28;20837;-84
2022/01/02 08:01:20;;;;;;;15.60;7.00;;;-7.40;99.90;;;;;;5050723;28;20395;-84
2022/01/02 08:03:48;;;;;;;14.67;6.70;;;-7.50;99.90;;;;;;5067299;28;20399;-85
2022/01/02 08:06:15;;;;;;;16.50;7.95;;;-7.50;99.90;;;;;;5034059;28;20444;-85
2022/01/02 08:08:44;;;;;;;14.93;7.70;;;-7.50;99.90;;;;;;5033949;28;20399;-85
2022/01/02 08:11:15;;;;;;;14.80;7.47;;;-7.30;99.90;;;;;;5050374;28;20406;-85
2022/01/02 08:14:03;;;;;;;15.88;7.45;;;-7.30;99.90;;;;;;5038492;28;20423;-85
2022/01/02 08:16:31;;;;;;;14.70;6.78;;;-7.30;99.90;;;;;;5067167;28;20418;-86
2022/01/02 08:19:00;;;;;;;15.18;6.88;;;-7.20;99.90;;;;;;5067208;28;20478;-86
2022/01/02 08:21:27;;;;;;;36.30;22.40;;;-7.20;99.90;;;;;;5053677;28;20748;-85
2022/01/02 08:23:55;;;;;;;51.22;44.63;;;-7.20;99.90;;;;;;5053850;28;20479;-85
2022/01/02 08:26:23;;;;;;;18.73;12.27;;;-7.30;99.90;;;;;;5070398;28;20464;-86
2022/01/02 08:28:52;;;;;;;20.10;13.20;;;-7.30;99.90;;;;;;5070494;28;20925;-85
2022/01/02 08:31:19;;;;;;;24.55;17.48;;;-7.30;99.90;;;;;;5048878;28;20455;-85
2022/01/02 08:33:47;;;;;;;29.73;23.10;;;-7.30;99.90;;;;;;5059005;28;20396;-85
2022/01/02 08:36:15;;;;;;;14.67;8.47;;;-7.40;99.90;;;;;;5056598;28;20424;-86
2022/01/02 08:38:44;;;;;;;11.02;5.50;;;-7.40;99.90;;;;;;5053525;28;20430;-85
2022/01/02 08:41:12;;;;;;;19.90;11.80;;;-7.40;99.90;;;;;;5053871;28;20425;-86
2022/01/02 08:43:42;;;;;;;13.38;6.25;;;-7.40;99.90;;;;;;5070029;28;20400;-86
2022/01/02 08:46:10;;;;;;;9.63;4.60;;;-7.40;99.90;;;;;;5056643;28;20413;-85
2022/01/02 08:48:38;;;;;;;8.70;4.90;;;-7.50;99.90;;;;;;5048142;28;20479;-85
2022/01/02 08:51:07;;;;;;;17.30;7.68;;;-7.60;99.90;;;;;;5058053;28;20395;-86
2022/01/02 08:53:34;;;;;;;15.55;7.03;;;-7.40;99.90;;;;;;5056669;28;20392;-85
2022/01/02 08:56:02;;;;;;;16.25;8.70;;;-7.40;99.90;;;;;;5056970;28;20387;-85
2022/01/02 08:58:30;;;;;;;24.50;17.10;;;-7.30;99.90;;;;;;5054377;28;20996;-86
2022/01/02 09:01:00;;;;;;;19.27;9.87;;;-7.20;99.90;;;;;;5059394;28;20435;-86
2022/01/02 09:03:29;;;;;;;15.50;7.97;;;-7.20;99.90;;;;;;5059135;28;20474;-85
2022/01/02 09:05:57;;;;;;;17.60;8.40;;;-7.10;99.90;;;;;;5054192;28;20402;-85
2022/01/02 09:08:29;;;;;;;13.95;7.88;;;-7.00;99.90;;;;;;5045307;28;20393;-86
2022/01/02 09:10:56;;;;;;;16.88;9.40;;;-7.10;99.90;;;;;;5040196;28;20766;-85
2022/01/02 09:13:26;;;;;;;14.32;8.00;;;-7.10;99.90;;;;;;5061058;28;20394;-86
2022/01/02 09:15:54;;;;;;;18.25;9.85;;;-7.10;99.90;;;;;;5060183;28;20491;-86
2022/01/02 09:18:22;;;;;;;17.23;9.40;;;-7.00;99.90;;;;;;5060151;28;20763;-86
2022/01/02 09:20:50;;;;;;;19.27;9.73;;;-7.00;99.90;;;;;;5076832;28;20447;-86
2022/01/02 09:23:18;;;;;;;21.53;10.70;;;-7.00;99.90;;;;;;5077654;28;20398;-86
2022/01/02 09:25:45;;;;;;;21.92;10.30;;;-7.00;99.90;;;;;;5060189;28;20799;-85
2022/01/02 09:28:13;;;;;;;17.85;8.88;;;-6.90;99.90;;;;;;5056876;28;20399;-85
2022/01/02 09:30:41;;;;;;;17.83;8.57;;;-6.90;99.90;;;;;;5076695;28;20470;-85
2022/01/02 09:33:09;;;;;;;16.65;8.60;;;-6.90;99.90;;;;;;5076584;28;20428;-86
2022/01/02 09:35:40;;;;;;;17.63;10.77;;;-7.00;99.90;;;;;;5060005;28;20447;-85
2022/01/02 09:38:09;;;;;;;17.35;10.25;;;-7.10;99.90;;;;;;5058743;28;20414;-86
2022/01/02 09:40:37;;;;;;;17.45;8.52;;;-7.10;99.90;;;;;;5059124;28;20395;-85
2022/01/02 09:43:05;;;;;;;18.15;9.80;;;-7.10;99.90;;;;;;5070712;28;20386;-85
2022/01/02 09:45:38;;;;;;;16.30;7.65;;;-7.00;99.90;;;;;;5076153;28;20417;-85
2022/01/02 09:48:08;;;;;;;15.75;9.45;;;-7.00;99.90;;;;;;5076505;28;20396;-85
2022/01/02 09:50:37;;;;;;;16.80;12.63;;;-7.10;99.90;;;;;;5076160;28;20398;-85
2022/01/02 09:53:07;;;;;;;15.05;8.68;;;-7.00;99.90;;;;;;5076221;28;20898;-85
2022/01/02 09:55:35;;;;;;;15.40;7.53;;;-7.00;99.90;;;;;;5058074;28;20756;-85
2022/01/02 09:58:09;;;;;;;14.55;7.57;;;-7.00;99.90;;;;;;5039778;28;20410;-86
2022/01/02 10:00:38;;;;;;;15.63;8.55;;;-7.00;99.90;;;;;;5040977;28;20407;-86
2022/01/02 10:03:08;;;;;;;13.88;7.22;;;-7.00;99.90;;;;;;5052203;28;20806;-85
2022/01/02 10:05:59;;;;;;;16.80;9.03;;;-7.00;99.90;;;;;;5056212;28;20469;-85
2022/01/02 10:08:34;;;;;;;12.85;7.43;;;-7.00;99.90;;;;;;5055939;28;20390;-85
2022/01/02 10:11:07;;;;;;;17.05;7.80;;;-7.00;99.90;;;;;;5061146;28;20486;-86
2022/01/02 10:14:02;;;;;;;17.40;6.78;;;-6.90;99.90;;;;;;5069575;28;20874;-86
2022/01/02 10:16:34;;;;;;;12.27;5.75;;;-6.90;99.90;;;;;;5036315;28;20392;-86
2022/01/02 10:19:38;;;;;;;12.10;5.70;;;-6.90;99.90;;;;;;5052844;28;20422;-87
2022/01/02 10:22:07;;;;;;;10.20;4.68;;;-6.80;99.90;;;;;;5039679;28;20438;-87
2022/01/02 10:24:42;;;;;;;10.43;4.25;;;-6.90;99.90;;;;;;5068085;28;20403;-86
2022/01/02 10:27:15;;;;;;;9.07;4.60;;;-6.80;99.90;;;;;;5052584;28;20395;-86
2022/01/02 10:29:47;;;;;;;10.33;4.57;;;-6.80;99.90;;;;;;5036180;28;20410;-87
2022/01/02 10:32:33;;;;;;;6.70;3.67;;;-6.80;99.90;;;;;;5035835;28;20384;-87
2022/01/02 10:35:21;;;;;;;8.43;4.32;;;-6.80;99.90;;;;;;5036112;28;20396;-87
2022/01/02 10:37:55;;;;;;;9.65;4.55;;;-6.70;99.90;;;;;;5052659;28;20399;-86
2022/01/02 10:40:35;;;;;;;7.65;3.63;;;-6.70;99.90;;;;;;5069125;28;20407;-87
2022/01/02 10:43:08;;;;;;;7.27;3.17;;;-6.70;99.90;;;;;;5036394;28;20392;-86
2022/01/02 10:45:42;;;;;;;7.55;3.33;;;-6.80;99.90;;;;;;5052664;28;20380;-86
2022/01/02 10:48:14;;;;;;;6.63;2.95;;;-6.70;99.90;;;;;;5036099;28;20400;-87
2022/01/02 10:51:14;;;;;;;6.70;3.28;;;-6.70;99.90;;;;;;5052362;28;20445;-86
2022/01/02 10:53:56;;;;;;;5.80;3.03;;;-6.60;99.90;;;;;;5053424;28;20749;-86
2022/01/02 10:56:30;;;;;;;6.78;2.70;;;-6.60;99.90;;;;;;5052347;28;20414;-87
2022/01/02 10:58:58;;;;;;;6.93;2.60;;;-6.60;99.90;;;;;;5069019;28;20632;-86
2022/01/02 11:01:29;;;;;;;6.95;3.25;;;-6.60;99.90;;;;;;5052225;28;20479;-86
2022/01/02 11:04:00;;;;;;;9.75;3.75;;;-6.50;99.90;;;;;;5051962;28;20473;-87
2022/01/02 11:06:32;;;;;;;7.57;3.95;;;-6.50;99.90;;;;;;5035586;28;20752;-86
2022/01/02 11:09:00;;;;;;;9.40;4.17;;;-6.60;99.90;;;;;;5052898;28;20822;-86
2022/01/02 11:11:28;;;;;;;8.98;3.83;;;-6.50;99.90;;;;;;5051938;28;20474;-88
2022/01/02 11:13:56;;;;;;;7.72;3.40;;;-6.50;99.90;;;;;;5051949;28;20392;-87
2022/01/02 11:16:25;;;;;;;6.70;3.35;;;-6.50;99.90;;;;;;5051745;28;20384;-87
2022/01/02 11:18:56;;;;;;;8.25;3.72;;;-6.40;99.90;;;;;;5035310;28;20412;-87
2022/01/02 11:21:28;;;;;;;9.20;4.35;;;-6.40;99.90;;;;;;5035351;28;20492;-86
2022/01/02 11:24:10;;;;;;;9.95;3.90;;;-6.40;99.90;;;;;;5051557;28;20479;-86
2022/01/02 11:26:46;;;;;;;6.13;3.30;;;-6.40;99.90;;;;;;5035289;28;21005;-86
2022/01/02 11:29:15;;;;;;;10.25;3.60;;;-6.40;99.90;;;;;;5051591;28;20403;-87
2022/01/02 11:31:48;;;;;;;8.45;3.95;;;-6.30;99.90;;;;;;5034989;28;20410;-88
2022/01/02 11:34:27;;;;;;;7.65;3.28;;;-6.30;99.90;;;;;;5035065;28;20461;-86
2022/01/02 11:37:12;;;;;;;9.02;3.20;;;-6.30;99.90;;;;;;5051664;28;20483;-87
2022/01/02 11:39:56;;;;;;;8.20;4.15;;;-6.30;99.90;;;;;;5067935;28;20399;-88
2022/01/02 11:42:36;;;;;;;10.90;5.07;;;-6.30;99.90;;;;;;5067863;28;20770;-87
2022/01/02 11:45:07;;;;;;;11.80;4.93;;;-6.30;99.90;;;;;;5067904;28;20890;-87
2022/01/02 11:47:46;;;;;;;10.68;5.03;;;-6.30;99.90;;;;;;5035546;28;20391;-88
2022/01/02 11:50:43;;;;;;;9.87;4.83;;;-6.20;99.90;;;;;;5051473;28;20392;-88
2022/01/02 11:53:14;;;;;;;12.07;5.07;;;-6.20;99.90;;;;;;5050909;28;20740;-88
2022/01/02 11:55:43;;;;;;;12.10;4.68;;;-6.20;99.90;;;;;;5067988;28;20487;-87
2022/01/02 11:58:11;;;;;;;10.55;4.63;;;-6.20;99.90;;;;;;5051072;28;20487;-87
2022/01/02 12:00:43;;;;;;;9.63;3.85;;;-6.20;99.90;;;;;;5067694;28;20404;-87
2022/01/02 12:03:42;;;;;;;9.43;3.67;;;-6.20;99.90;;;;;;5034851;28;20400;-88
2022/01/02 12:06:19;;;;;;;7.85;4.05;;;-6.10;99.90;;;;;;5067332;28;20384;-88
2022/01/02 12:08:51;;;;;;;7.90;4.05;;;-6.10;99.90;;;;;;5034689;28;20404;-87
2022/01/02 12:11:31;;;;;;;11.57;5.50;;;-6.10;99.90;;;;;;5051217;28;20907;-88
2022/01/02 12:14:04;;;;;;;12.38;4.80;;;-6.10;99.90;;;;;;5068517;28;20412;-87
2022/01/02 12:16:37;;;;;;;6.57;3.42;;;-6.00;99.90;;;;;;5064625;28;20498;-87
2022/01/02 12:19:05;;;;;;;6.78;2.80;;;-6.10;99.90;;;;;;5064938;28;20488;-88
2022/01/02 12:21:33;;;;;;;4.75;2.13;;;-6.00;99.90;;;;;;5054338;28;20386;-88
2022/01/02 12:24:05;;;;;;;6.00;2.05;;;-6.00;99.90;;;;;;5053772;28;20390;-87
2022/01/02 12:26:34;;;;;;;5.30;2.30;;;-6.10;99.90;;;;;;5070719;28;20741;-87
2022/01/02 12:29:12;;;;;;;8.02;3.17;;;-6.00;99.90;;;;;;5070726;28;20390;-87
2022/01/02 12:31:43;;;;;;;7.22;3.40;;;-6.10;99.90;;;;;;5070710;28;20395;-88
2022/01/02 12:34:20;;;;;;;12.93;4.18;;;-6.00;99.90;;;;;;5054127;28;20472;-88
2022/01/02 12:36:50;;;;;;;11.90;4.57;;;-6.00;99.90;;;;;;5070727;28;20402;-87
2022/01/02 12:39:30;;;;;;;10.10;4.28;;;-6.00;99.90;;;;;;5051549;28;20448;-87
2022/01/02 12:42:14;;;;;;;8.63;4.00;;;-6.00;99.90;;;;;;5070532;28;20418;-87
2022/01/02 12:44:43;;;;;;;8.45;4.00;;;-6.00;99.90;;;;;;5078012;28;20408;-87
2022/01/02 12:47:19;;;;;;;8.50;4.10;;;-6.00;99.90;;;;;;5050257;28;20480;-87
2022/01/02 12:49:47;;;;;;;11.27;4.15;;;-6.00;99.90;;;;;;5033748;28;20789;-87
2022/01/02 12:52:17;;;;;;;7.95;3.70;;;-6.00;99.90;;;;;;5038754;28;20459;-88
2022/01/02 12:54:50;;;;;;;9.07;3.85;;;-6.00;99.90;;;;;;5051088;28;20842;-87
2022/01/02 12:57:19;;;;;;;8.77;4.03;;;-6.00;99.90;;;;;;5071616;28;20481;-87
2022/01/02 12:59:48;;;;;;;8.05;3.58;;;-6.00;99.90;;;;;;5070347;28;20405;-86
2022/01/02 13:02:23;;;;;;;8.40;3.65;;;-5.90;99.90;;;;;;5052997;28;20402;-87